Delphi, Ohio
Current Conditions -  °F | °C
As of 10:52 PM on Thursday 18 Dec 2014 (Local Time) from KMFD Reporting Station
Overcast Overcast  
Wind Chill: 20°   Ceiling: 600
Heat Index: 27°   Visibility: 7mi
Dew Point: 25°   Wind: 6mph
Humidity: 92%   Direction: 250°WSW
Pressure: 30.16"   Gusts: NA
Location:  41.0768°N, 82.7214°W
Report Text: KMFD 190352Z AUTO 25005KT 7SM OVC006 M03/M04 A3016 RMK AO2 SLP231 T10281039
Loading
Personal Weather Stations






























Interactive Weather Map New forecast layout! Learn more

10-Day Weather Forecast

Advertisements
Track Severe Weather on mobile